Home > Products > Valid Products > TAF

000
FTUS46 KEKA 020531
TAFACV
TAF
KACV 020531Z 0206/0306 VRB03KT 3SM BR OVC004
     FM020800 VRB03KT 3/4SM BR OVC002
     FM021700 29005KT 5SM BR OVC004
     FM021900 29007KT P6SM SCT006
     FM030200 27005KT P6SM BKN005=



000
FTUS46 KEKA 020531
TAFCEC
TAF
KCEC 020531Z 0206/0306 15010KT 5SM BR OVC004
     FM020900 15009KT 1SM BR OVC003
     FM021600 19006KT 4SM BR BKN005
     FM021800 19010KT P6SM SCT006
     FM030400 15006KT P6SM BKN005=



000
FTUS46 KEKA 020531
TAFUKI
TAF
KUKI 020531Z 0206/0306 15005KT P6SM BKN200
     FM021800 22010KT P6SM BKN200
     FM030300 VRB03KT P6SM BKN150=



000
FTUS46 KEKA 020256 AAA
TAFCEC
TAF AMD
KCEC 020256Z 0203/0224 18010KT 6SM HZ SCT005
     FM020400 18008KT 4SM BR OVC005
     FM020600 15004KT 3/4SM BR OVC002
     FM021600 19006KT 4SM BR BKN005
     FM021800 19009KT P6SM SCT005=



000
FTUS46 KEKA 012340
TAFACV
TAF
KACV 012340Z 0200/0224 28006KT P6SM FEW003
     FM020200 25006KT 4SM BR OVC004
     FM020400 00000KT 1/2SM FG OVC002
     FM021700 29005KT 5SM BR OVC004
     FM021900 29007KT P6SM SCT006=



000
FTUS46 KEKA 012340
TAFCEC
TAF
KCEC 012340Z 0200/0224 18010KT P6SM SCT004
     FM020300 17006KT 5SM BR OVC004
     FM020600 15004KT 3/4SM BR OVC002
     FM021600 19006KT 4SM BR BKN005
     FM021800 19009KT P6SM SCT005=



000
FTUS46 KEKA 012340
TAFUKI
TAF
KUKI 012340Z 0200/0224 15009KT P6SM BKN200
      TEMPO 0200/0202 15010G17KT
     FM020300 15005KT P6SM BKN200
     FM021800 22010KT P6SM BKN200=



000
FTUS46 KEKA 012340
TAFUKI
TAF
KUKI 012340Z 0200/0224 15009KT P6SM BKN200
      TEMPO 0200/0202 15010G17KT
     FM020300 15005KT P6SM BKN200
     FM021800 22010KT P6SM BKN200=



000
FTUS46 KEKA 012340
TAFCEC
TAF
KCEC 012340Z 0200/0224 18010KT P6SM SCT004
     FM020300 17006KT 5SM BR OVC004
     FM020600 15004KT 3/4SM BR OVC002
     FM021600 19006KT 4SM BR BKN005
     FM021800 19009KT P6SM SCT005=



000
FTUS46 KEKA 012340
TAFACV
TAF
KACV 012340Z 0200/0224 28006KT P6SM FEW003
     FM020200 25006KT 4SM BR OVC004
     FM020400 00000KT 1/2SM FG OVC002
     FM021700 29005KT 5SM BR OVC004
     FM021900 29007KT P6SM SCT006=



000
FTUS46 KEKA 012250 AAA
TAFCEC
TAF AMD
KCEC 012250Z 0123/0218 18010KT P6SM SCT004
      TEMPO 0200/0203 6SM BR BKN004
     FM020300 17006KT 5SM BR OVC003
     FM020600 15004KT 3/4SM BR OVC002
     FM021700 19006KT P6SM BKN005=



000
FTUS46 KEKA 012135 AAA
TAFUKI
TAF AMD
KUKI 012135Z 0122/0218 15010G17KT P6SM SCT250
     FM012300 15009KT P6SM FEW035
      TEMPO 0123/0201 15012G17KT
     FM020300 15003KT P6SM SCT250=



000
FTUS46 KEKA 012131 AAB
TAFACV
TAF AMD
KACV 012131Z 0122/0218 28006KT P6SM SCT003
      TEMPO 0123/0201 6SM BR BKN003
     FM020100 25006KT 4SM BR OVC004
     FM020400 00000KT 1/2SM FG OVC002=



000
FTUS46 KEKA 011949 AAA
TAFACV
TAF AMD
KACV 011949Z 0120/0218 26008KT P6SM SCT003
      TEMPO 0121/0124 6SM BR BKN003
     FM020000 25006KT 4SM BR OVC004
     FM020400 00000KT 1/2SM FG OVC002=



000
FTUS46 KEKA 011739
TAFUKI
TAF
KUKI 011739Z 0118/0218 VRB05KT P6SM FEW035
     FM012200 22009KT P6SM FEW035
     FM020300 15003KT P6SM SCT250=



000
FTUS46 KEKA 011739
TAFCEC
TAF
KCEC 011739Z 0118/0218 18006KT P6SM BKN003
      TEMPO 0119/0120 SCT003
     FM012000 18008KT P6SM SCT004
      TEMPO 0120/0122 BKN004
     FM012200 18009KT P6SM BKN005
     FM020200 VRB04KT 3/4SM BR OVC003=



000
FTUS46 KEKA 011739
TAFACV
TAF
KACV 011739Z 0118/0218 29006KT 3/4SM BR OVC002
      TEMPO 0118/0120 29007KT 3SM BR
     FM012000 28008KT P6SM BKN003
      TEMPO 0121/0124 SCT004
     FM020000 25006KT 4SM BR OVC004
     FM020400 00000KT 1/2SM FG OVC002=



000
FTUS46 KEKA 011509 AAA
TAFCEC
TAF AMD
KCEC 011509Z 0115/0212 VRB03KT 3/4SM BR OVC002
     FM011700 18005KT 3SM BR OVC002
      TEMPO 0117/0118 5SM BR BKN003
     FM011900 18006KT P6SM BKN002
     FM012200 18008KT 5SM BR BKN004
     FM020200 00000KT 1/2SM FG OVC002=



000
FTUS46 KEKA 011458 AAA
TAFACV
TAF AMD
KACV 011458Z 0115/0212 VRB03KT 1/2SM FG VV002
      TEMPO 0116/0117 1SM BR
     FM011700 29005KT 3SM BR OVC002
     FM011800 30007KT P6SM BKN003
     FM012100 28007KT P6SM SCT002
     FM020100 30006KT 4SM BR OVC004
     FM020400 00000KT 1/2SM FG OVC002=



000
FTUS46 KEKA 011138
TAFCEC
TAF
KCEC 011138Z 0112/0212 00000KT 1/2SM FG VV002
      TEMPO 0112/0116 1/4SM FG VV001
     FM011700 18005KT 2SM BR OVC002
     FM011900 18006KT P6SM BKN002
     FM012200 18008KT 5SM BR BKN004
     FM020200 00000KT 1/2SM FG OVC002=



000
FTUS46 KEKA 011138
TAFUKI
TAF
KUKI 011138Z 0112/0212 00000KT P6SM SKC
     FM012100 VRB06KT P6SM SKC
     FM020300 15003KT P6SM SCT250=



000
FTUS46 KEKA 011138
TAFACV
TAF
KACV 011138Z 0112/0212 00000KT 1/2SM FG VV002
      TEMPO 0112/0116 1/4SM FG VV001
     FM011600 29005KT 3SM BR OVC002
     FM011800 30007KT P6SM BKN002
     FM012100 28007KT P6SM SCT002
     FM020100 30006KT 4SM BR OVC004
     FM020400 00000KT 1/2SM FG OVC002=



000
FTUS46 KEKA 010532
TAFACV
TAF
KACV 010532Z 0106/0206 VRB03KT 1SM BR OVC002
      TEMPO 0106/0110 1/2SM FG VV002
     FM011600 29005KT 3SM BR OVC003
     FM011800 30007KT P6SM OVC005
     FM012200 31007KT P6SM SCT006
     FM020200 29006KT P6SM OVC005=



000
FTUS46 KEKA 010532
TAFUKI
TAF
KUKI 010532Z 0106/0206 VRB03KT P6SM SCT250
     FM012000 27009KT P6SM SCT250
     FM020300 VRB03KT P6SM BKN200=



000
FTUS46 KEKA 010532
TAFCEC
TAF
KCEC 010532Z 0106/0206 18007KT 1SM BR OVC002
     FM011500 18005KT 3SM BR OVC004
     FM011800 18006KT P6SM OVC006
     FM012100 18009KT P6SM SCT007
     FM020200 18008KT P6SM OVC006=



000
FTUS46 KEKA 010305 AAB
TAFCEC
TAF AMD
KCEC 010305Z 0103/0124 16009KT 1SM BR VV002
     FM010600 VRB03KT 3SM BR OVC003
     FM011000 VRB03KT 1/2SM FG OVC002
     FM011800 19005KT P6SM OVC006=



000
FTUS46 KEKA 010305 AAB
TAFACV
TAF AMD
KACV 010305Z 0103/0124 17004KT 1/2SM FG VV002
      TEMPO 0103/0106 1/4SM FG VV002
     FM011000 17003KT 1/2SM -DZ FG OVC002
     FM011800 24005KT P6SM OVC006=



000
FTUS46 KEKA 010305 AAB
TAFACV
TAF AMD
KACV 010305Z 0103/0124 17004KT 1/2SM FG VV002
      TEMPO 0103/0106 1/4SM FG VV002
     FM011000 17003KT 1/2SM -DZ FG OVC002
     FM011800 24005KT P6SM OVC006=



000
FTUS46 KEKA 010305 AAB
TAFCEC
TAF AMD
KCEC 010305Z 0103/0124 16009KT 1SM BR VV002
     FM010600 VRB03KT 3SM BR OVC003
     FM011000 VRB03KT 1/2SM FG OVC002
     FM011800 19005KT P6SM OVC006=



000
FTUS46 KEKA 010120 AAA
TAFACV
TAF AMD
KACV 010120Z 0101/0124 30007KT 3SM BR BKN003
      TEMPO 0101/0103 1/4SM FG VV002
     FM010300 17004KT 2SM BR OVC003
     FM011000 17003KT 1/2SM -DZ FG OVC002
     FM011800 24005KT P6SM OVC006=



000
FTUS46 KEKA 010120 AAA
TAFCEC
TAF AMD
KCEC 010120Z 0101/0124 23007KT 5SM BR OVC003
     FM010300 16009KT P6SM BKN004
     FM010600 VRB03KT 3SM BR OVC003
     FM011000 VRB03KT 1/2SM FG OVC002
     FM011800 19005KT P6SM OVC006=



000
FTUS46 KEKA 010120 AAA
TAFACV
TAF AMD
KACV 010120Z 0101/0124 30007KT 3SM BR BKN003
      TEMPO 0101/0103 1/4SM FG VV002
     FM010300 17004KT 2SM BR OVC003
     FM011000 17003KT 1/2SM -DZ FG OVC002
     FM011800 24005KT P6SM OVC006=



000
FTUS46 KEKA 010120 AAA
TAFCEC
TAF AMD
KCEC 010120Z 0101/0124 23007KT 5SM BR OVC003
     FM010300 16009KT P6SM BKN004
     FM010600 VRB03KT 3SM BR OVC003
     FM011000 VRB03KT 1/2SM FG OVC002
     FM011800 19005KT P6SM OVC006=



000
FTUS46 KEKA 302335
TAFACV
TAF
KACV 302335Z 0100/0124 30007KT P6SM BKN005
     FM010600 17004KT 3SM BR OVC004
     FM011000 17003KT 1/2SM -DZ FG OVC002
     FM011800 24005KT P6SM OVC006=



000
FTUS46 KEKA 302335
TAFUKI
TAF
KUKI 302335Z 0100/0124 07005KT P6SM FEW250
     FM010300 VRB03KT P6SM FEW250
     FM012000 16009KT P6SM SCT035 SCT250=



000
FTUS46 KEKA 302335
TAFCEC
TAF
KCEC 302335Z 0100/0124 23007KT P6SM BKN005
     FM010300 16009KT P6SM OVC004
     FM010600 VRB03KT 3SM BR OVC003
     FM011000 VRB03KT 1/2SM FG OVC002
     FM011800 19005KT P6SM OVC006=



000
FTUS46 KEKA 302147 AAA
TAFCEC
TAF AMD
KCEC 302147Z 3022/0118 22003KT P6SM OVC005
      TEMPO 3023/3024 SCT005
     FM010300 VRB03KT P6SM BKN004
     FM010600 15008KT 3SM BR BKN004=



000
FTUS46 KEKA 302047 AAA
TAFACV
TAF AMD
KACV 302047Z 3021/0118 28006KT P6SM BKN005 BKN007
      TEMPO 3023/0101 SCT005 SCT009
     FM010100 33010KT P6SM BKN009
     FM010300 14004KT 6SM BR OVC006=



000
FTUS46 KEKA 301844 CCA
TAFCEC
TAF COR
KCEC 301844Z 3018/0118 19003KT P6SM OVC005
     FM302200 29009KT P6SM BKN008
      TEMPO 3022/3024 SCT008
     FM010000 30011KT P6SM SCT008
     FM010300 29006KT P6SM BKN006
     FM010600 15008KT 4SM BR BKN004=



000
FTUS46 KEKA 301740
TAFACV
TAF
KACV 301740Z 3018/0118 28006KT P6SM OVC004
     FM302000 30009KT P6SM BKN007
      TEMPO 3023/0101 SCT010
     FM010100 33010KT P6SM BKN010
     FM010300 14004KT 6SM BR OVC006=



000
FTUS46 KEKA 301740
TAFUKI
TAF
KUKI 301740Z 3018/0118 VRB04KT P6SM FEW035
     FM302300 27006KT P6SM FEW035 SCT250
     FM010300 VRB03KT P6SM SKC=



000
FTUS46 KEKA 301740
TAFCEC
TAF
KCEC 301740Z 3018/0118 19003KT P6SM OVC006
     FM302200 29009KT P6SM BKN008
      TEMPO 3022/3024 SCT008
     FM010000 30011KT P6SM SCT008
     FM010300 29006KT P6SM BKN006
     FM010600 15008KT 4SM BR BKN004=



000
FTUS46 KEKA 301559 AAA
TAFACV
TAF AMD
KACV 301559Z 3016/0112 34005KT 2SM BR OVC002
      TEMPO 3016/3017 3SM BR OVC003
     FM301700 25005KT P6SM OVC005
     FM302100 30008KT P6SM BKN007
     FM010000 33010KT P6SM BKN010
     FM010300 14004KT 6SM BR OVC006=



000
FTUS46 KEKA 301425 AAA
TAFCEC
TAF AMD
KCEC 301425Z 3014/0112 VRB03KT 3/4SM BR OVC002
      TEMPO 3015/3017 2SM BR OVC003
     FM301700 33007KT P6SM OVC004
     FM010000 34009KT P6SM SCT007
     FM010600 15008KT 4SM BR BKN004=



000
FTUS46 KEKA 301425 AAA
TAFCEC
TAF AMD
KCEC 301425Z 3014/0112 VRB03KT 3/4SM BR OVC002
      TEMPO 3015/3017 2SM BR OVC003
     FM301700 33007KT P6SM OVC004
     FM010000 34009KT P6SM SCT007
     FM010600 15008KT 4SM BR BKN004=



000
FTUS46 KEKA 301142
TAFUKI
TAF
KUKI 301142Z 3012/0112 00000KT P6SM SKC
     FM302300 27006KT P6SM FEW250
     FM010300 VRB03KT P6SM SKC=



000
FTUS46 KEKA 301142
TAFCEC
TAF
KCEC 301142Z 3012/0112 00000KT 3SM BR OVC003
     FM301700 33007KT P6SM OVC004
     FM010000 34009KT P6SM SCT007
     FM010600 15008KT 4SM BR BKN004=



000
FTUS46 KEKA 301142
TAFACV
TAF
KACV 301142Z 3012/0112 34005KT 3SM BR OVC003
     FM301600 25005KT P6SM OVC005
     FM302100 30008KT P6SM BKN007
     FM010000 33010KT P6SM BKN010
     FM010300 14004KT 6SM BR OVC006=



000
FTUS46 KEKA 300534
TAFCEC
TAF
KCEC 300534Z 3006/0106 34006KT P6SM OVC006
     FM301000 17003KT 4SM BR OVC004
     FM301500 33004KT P6SM BKN008
     FM301800 33010KT P6SM SCT008
     FM010300 33004KT P6SM SCT008=



000
FTUS46 KEKA 300534
TAFUKI
TAF
KUKI 300534Z 3006/0106 VRB03KT P6SM SKC
     FM301800 29006KT P6SM SCT150
     FM010300 VRB03KT P6SM SKC=



000
FTUS46 KEKA 300534
TAFACV
TAF
KACV 300534Z 3006/0106 34004KT P6SM OVC006
     FM300900 25003KT 3SM BR OVC003
     FM301600 29006KT P6SM BKN008
     FM302100 29009KT P6SM SCT010
     FM010200 35003KT P6SM BKN008=



000
FTUS46 KEKA 300501 AAD
TAFACV
TAF AMD
KACV 300501Z 3005/3024 35006KT P6SM SCT007
     FM300600 34004KT P6SM OVC006
     FM300900 25003KT 3SM BR OVC003
     FM301600 29006KT P6SM BKN008 OVC011
     FM302100 29009KT P6SM SCT010=



000
FTUS46 KEKA 300501 AAD
TAFACV
TAF AMD
KACV 300501Z 3005/3024 35006KT P6SM SCT007
     FM300600 34004KT P6SM OVC006
     FM300900 25003KT 3SM BR OVC003
     FM301600 29006KT P6SM BKN008 OVC011
     FM302100 29009KT P6SM SCT010=



000
FTUS46 KEKA 300419 AAB
TAFCEC
TAF AMD
KCEC 300419Z 3004/3024 34006KT P6SM OVC006
     FM301000 17003KT 4SM BR OVC004
     FM301500 33004KT P6SM BKN008
     FM301800 33010KT P6SM SCT010=



000
FTUS46 KEKA 300404 AAC
TAFACV
TAF AMD
KACV 300404Z 3004/3024 35007KT P6SM SCT007
     FM300500 35006KT P6SM OVC007
     FM300900 25003KT 3SM BR OVC003
     FM301600 29006KT P6SM BKN008 OVC011
     FM302100 29009KT P6SM SCT010=



000
FTUS46 KEKA 300243 AAB
TAFACV
TAF AMD
KACV 300243Z 3003/3024 33011KT P6SM SCT007
     FM300400 31005KT P6SM OVC006
     FM300900 25003KT 3SM BR OVC003
     FM301600 29006KT P6SM BKN008 OVC011
     FM302100 29009KT P6SM SCT010=



000
FTUS46 KEKA 300243 AAB
TAFACV
TAF AMD
KACV 300243Z 3003/3024 33011KT P6SM SCT007
     FM300400 31005KT P6SM OVC006
     FM300900 25003KT 3SM BR OVC003
     FM301600 29006KT P6SM BKN008 OVC011
     FM302100 29009KT P6SM SCT010=



000
FTUS46 KEKA 300126 AAA
TAFCEC
TAF AMD
KCEC 300126Z 3001/3024 34006KT P6SM OVC004
     FM301000 17003KT 4SM BR OVC004
     FM301500 33004KT P6SM BKN008
     FM301800 33010KT P6SM SCT010=



000
FTUS46 KEKA 300124 AAA
TAFACV
TAF AMD
KACV 300124Z 3001/3024 33013KT P6SM SCT010
     FM300300 31004KT P6SM OVC007
     FM300900 25003KT 3SM BR OVC003
     FM301600 29006KT P6SM BKN008 OVC011
     FM302100 29009KT P6SM SCT010=



000
FTUS46 KEKA 292333
TAFCEC
TAF
KCEC 292333Z 3000/3024 31008KT P6SM BKN006 OVC011
     FM300300 34004KT P6SM OVC006
     FM301000 17003KT 4SM BR OVC005
     FM301500 33004KT P6SM BKN008
     FM301800 33010KT P6SM SCT010=



000
FTUS46 KEKA 292333
TAFUKI
TAF
KUKI 292333Z 3000/3024 32006KT P6SM SKC
     FM300400 VRB03KT P6SM SKC
     FM301800 29006KT P6SM SCT150=



000
FTUS46 KEKA 292333
TAFACV
TAF
KACV 292333Z 3000/3024 31010KT P6SM BKN010
     FM300300 31004KT P6SM OVC007
     FM300900 25003KT 3SM BR OVC003
     FM301600 29006KT P6SM BKN008 OVC011
     FM302100 29009KT P6SM SCT010=



000
FTUS46 KEKA 291736
TAFUKI
TAF
KUKI 291736Z 2918/3018 00000KT P6SM SKC
     FM292100 32006KT P6SM SKC
     FM300400 VRB03KT P6SM SKC=



000
FTUS46 KEKA 291736
TAFCEC
TAF
KCEC 291736Z 2918/3018 31006KT P6SM BKN011
     FM292000 29008KT P6SM BKN015
     FM292300 31008KT P6SM SCT015
     FM300300 34004KT P6SM OVC007
     FM301000 17003KT 4SM BR OVC005=



000
FTUS46 KEKA 291736
TAFACV
TAF
KACV 291736Z 2918/3018 31005KT P6SM OVC006
     FM292000 30006KT P6SM BKN010
     FM300300 31004KT P6SM OVC007
     FM300900 25003KT 4SM BR OVC005=



000
FTUS46 KEKA 291601 AAA
TAFCEC
TAF AMD
KCEC 291601Z 2916/3012 35004KT P6SM BKN012
      TEMPO 2916/2918 BKN004
     FM291800 32005KT P6SM OVC007
     FM300200 34005KT P6SM OVC007=



000
FTUS46 KEKA 291336 AAA
TAFACV
TAF AMD
KACV 291336Z 2914/3012 24004KT 6SM BR SCT002 OVC010
     FM291800 31005KT P6SM OVC009
     FM292000 30006KT P6SM BKN010
     FM300300 15004KT P6SM OVC007=



000
FTUS46 KEKA 291336 AAA
TAFACV
TAF AMD
KACV 291336Z 2914/3012 24004KT 6SM BR SCT002 OVC010
     FM291800 31005KT P6SM OVC009
     FM292000 30006KT P6SM BKN010
     FM300300 15004KT P6SM OVC007=



000
FTUS46 KEKA 291238 CCB
TAFACV
TAF COR
KACV 291238Z 2912/3012 24004KT 5SM BR SCT002 OVC006
     FM291800 31005KT P6SM OVC009
     FM292000 30006KT P6SM BKN010
     FM300300 15004KT P6SM OVC007=



000
FTUS46 KEKA 291238 CCB
TAFACV
TAF COR
KACV 291238Z 2912/3012 24004KT 5SM BR SCT002 OVC006
     FM291800 31005KT P6SM OVC009
     FM292000 30006KT P6SM BKN010
     FM300300 15004KT P6SM OVC007=



000
FTUS46 KEKA 291226 CCA
TAFCEC
TAF COR
KCEC 291226Z 2912/3012 00000KT 6SM BR OVC006
     FM291400 17004KT 5SM BR OVC004
     FM291800 32005KT P6SM OVC007
     FM300200 34005KT P6SM OVC007=



000
FTUS46 KEKA 291226 CCA
TAFCEC
TAF COR
KCEC 291226Z 2912/3012 00000KT 6SM BR OVC006
     FM291400 17004KT 5SM BR OVC004
     FM291800 32005KT P6SM OVC007
     FM300200 34005KT P6SM OVC007=



000
FTUS46 KEKA 291225 CCA
TAFACV
TAF COR
KACV 291225Z 2912/3012 00000KT 2SM BR OVC002
     FM291500 24003KT 4SM BR OVC004
     FM291800 31005KT P6SM OVC008
     FM292200 30006KT P6SM BKN010
     FM300300 15004KT P6SM OVC007=



000
FTUS46 KEKA 291225 CCA
TAFACV
TAF COR
KACV 291225Z 2912/3012 00000KT 2SM BR OVC002
     FM291500 24003KT 4SM BR OVC004
     FM291800 31005KT P6SM OVC008
     FM292200 30006KT P6SM BKN010
     FM300300 15004KT P6SM OVC007=



000
FTUS46 KEKA 291126
TAFUKI
TAF
KUKI 291126Z 2912/3012 00000KT P6SM SKC
     FM292100 32006KT P6SM SKC
     FM300200 VRB03KT P6SM SKC=



000
FTUS46 KEKA 291126
TAFACV
TAF
KACV 291126Z 2912/3012 00000KT 6SM BR OVC007
     FM291400 24003KT 4SM BR OVC004
     FM291800 31005KT P6SM OVC008
     FM292200 30006KT P6SM BKN010
     FM300300 15004KT P6SM OVC007=



000
FTUS46 KEKA 291126
TAFCEC
TAF
KCEC 291126Z 2912/3012 00000KT 6SM BR OVC007
     FM291500 17004KT 4SM BR OVC004
     FM291800 32005KT P6SM OVC007
     FM300200 34005KT P6SM OVC007=



    US Dept of Commerce
    National Oceanic and Atmospheric Administration
    National Weather Service
    1325 East West Highway
    Silver Spring, MD 20910
    Page Author: NWS Internet Services Team
Disclaimer
Information Quality
Credits
Glossary
Privacy Policy
Freedom of Information Act (FOIA)
About Us
Career Opportunities